Time;durP1;ratioP1;P1;durP2;ratioP2;P2;SDS_P1;SDS_P2;PMS_P1;PMS_P2;Temp;Humidity;BMP_temperature;BMP_pressure;BME280_temperature;BME280_humidity;BME280_pressure;Samples;Min_cycle;Max_cycle;Signal;HPM_P1;HPM_P2
2023/01/19 00:01:47;;;;;;;14.20;12.03;;;4.00;99.90;;;;;;5066321;28;20207;-33
2023/01/19 00:04:18;;;;;;;16.17;12.37;;;4.00;99.90;;;;;;5066319;28;20211;-33
2023/01/19 00:06:48;;;;;;;15.53;12.00;;;4.00;99.90;;;;;;5064924;28;20248;-33
2023/01/19 00:09:15;;;;;;;16.10;12.20;;;3.90;99.90;;;;;;5066343;28;20195;-33
2023/01/19 00:11:45;;;;;;;15.07;11.83;;;3.90;99.90;;;;;;5066569;28;20207;-33
2023/01/19 00:14:12;;;;;;;20.37;12.57;;;4.00;99.90;;;;;;5067667;28;20306;-33
2023/01/19 00:16:54;;;;;;;18.77;12.17;;;4.00;99.90;;;;;;5071504;28;20449;-33
2023/01/19 00:19:21;;;;;;;16.43;12.67;;;4.00;99.90;;;;;;5071523;28;20566;-33
2023/01/19 00:21:48;;;;;;;17.53;12.97;;;3.90;99.90;;;;;;5073214;28;20638;-33
2023/01/19 00:24:17;;;;;;;16.27;12.33;;;3.90;99.90;;;;;;5072584;28;20200;-33
2023/01/19 00:26:44;;;;;;;15.83;12.70;;;3.90;99.90;;;;;;5070734;28;20199;-33
2023/01/19 00:29:16;;;;;;;17.03;12.60;;;3.90;99.90;;;;;;5070754;28;20660;-34
2023/01/19 00:31:43;;;;;;;17.47;13.20;;;3.90;99.90;;;;;;5072954;28;20244;-33
2023/01/19 00:34:10;;;;;;;19.93;13.07;;;3.90;99.90;;;;;;5072363;28;20208;-33
2023/01/19 00:36:38;;;;;;;19.17;13.23;;;3.90;99.90;;;;;;5071764;28;20231;-33
2023/01/19 00:39:05;;;;;;;15.17;12.30;;;3.80;99.90;;;;;;5070715;28;20635;-33
2023/01/19 00:44:21;;;;;;;15.23;11.97;;;3.80;99.90;;;;;;5071296;28;20203;-33
2023/01/19 00:46:48;;;;;;;16.77;12.10;;;3.80;99.90;;;;;;5071864;28;20222;-33
2023/01/19 00:49:15;;;;;;;16.97;12.77;;;3.80;99.90;;;;;;5070557;28;20191;-33
2023/01/19 00:51:43;;;;;;;17.57;12.77;;;3.80;99.90;;;;;;5072627;28;20385;-33
2023/01/19 00:54:13;;;;;;;15.97;12.00;;;3.80;99.90;;;;;;5073197;28;20191;-33
2023/01/19 00:56:42;;;;;;;16.27;12.87;;;3.80;99.90;;;;;;5072693;28;20627;-33
2023/01/19 00:59:12;;;;;;;15.23;12.33;;;3.80;99.90;;;;;;5071327;28;20607;-33
2023/01/19 01:01:42;;;;;;;13.93;11.40;;;3.80;99.90;;;;;;5072155;28;20211;-33
2023/01/19 01:04:14;;;;;;;19.10;13.90;;;3.80;99.90;;;;;;5071124;28;20662;-33
2023/01/19 01:06:51;;;;;;;18.07;12.90;;;3.80;99.90;;;;;;5072541;28;20705;-33
2023/01/19 01:09:23;;;;;;;19.17;13.20;;;3.80;99.90;;;;;;5071838;28;20195;-33
2023/01/19 01:11:53;;;;;;;17.13;12.57;;;3.80;99.90;;;;;;5072519;28;20297;-33
2023/01/19 01:14:20;;;;;;;18.93;12.50;;;3.80;99.90;;;;;;5070779;28;20551;-33
2023/01/19 01:16:47;;;;;;;21.37;12.73;;;3.70;99.90;;;;;;5070725;28;20191;-33
2023/01/19 01:19:15;;;;;;;17.73;12.80;;;3.70;99.90;;;;;;5072444;28;20218;-33
2023/01/19 01:21:42;;;;;;;18.10;13.40;;;3.70;99.90;;;;;;5062485;28;20212;-33
2023/01/19 01:24:10;;;;;;;16.77;12.90;;;3.70;99.90;;;;;;5052358;28;20238;-33
2023/01/19 01:26:38;;;;;;;17.67;13.27;;;3.70;99.90;;;;;;5047756;28;20281;-33
2023/01/19 01:29:07;;;;;;;19.53;13.80;;;3.70;99.90;;;;;;5047731;28;20228;-33
2023/01/19 01:31:34;;;;;;;19.60;14.10;;;3.70;99.90;;;;;;5061773;28;20320;-33
2023/01/19 01:34:02;;;;;;;18.80;13.63;;;3.70;99.90;;;;;;5067714;28;20589;-33
2023/01/19 01:36:32;;;;;;;26.07;14.57;;;3.70;99.90;;;;;;5067720;28;20755;-33
2023/01/19 01:39:02;;;;;;;21.87;13.93;;;3.70;99.90;;;;;;5069285;28;20766;-33
2023/01/19 01:41:33;;;;;;;17.13;12.70;;;3.70;99.90;;;;;;5067773;28;20203;-33
2023/01/19 01:44:23;;;;;;;18.30;13.10;;;3.70;99.90;;;;;;5067776;28;20689;-33
2023/01/19 01:46:51;;;;;;;18.67;13.60;;;3.70;99.90;;;;;;5068794;28;20732;-33
2023/01/19 01:49:20;;;;;;;18.50;13.37;;;3.60;99.90;;;;;;5068960;28;20285;-33
2023/01/19 01:51:51;;;;;;;19.63;12.83;;;3.60;99.90;;;;;;5066865;28;20718;-33
2023/01/19 01:54:25;;;;;;;16.73;13.00;;;3.60;99.90;;;;;;5067337;28;20666;-33
2023/01/19 01:57:00;;;;;;;22.47;13.77;;;3.60;99.90;;;;;;5059499;28;20222;-33
2023/01/19 01:59:37;;;;;;;17.33;13.00;;;3.60;99.90;;;;;;5058766;28;20292;-33
2023/01/19 02:05:32;;;;;;;21.27;13.67;;;3.60;99.90;;;;;;5059549;28;20630;-33
2023/01/19 02:13:52;;;;;;;16.77;12.93;;;3.60;99.90;;;;;;5058178;28;20212;-33
2023/01/19 02:16:19;;;;;;;18.70;12.10;;;3.50;99.90;;;;;;5052679;28;20197;-33
2023/01/19 02:18:46;;;;;;;17.43;11.90;;;3.50;99.90;;;;;;5047659;28;20695;-33
2023/01/19 02:21:23;;;;;;;17.50;12.00;;;3.50;99.90;;;;;;5048387;28;20270;-33
2023/01/19 02:23:55;;;;;;;16.80;11.10;;;3.50;99.90;;;;;;5055024;28;20246;-33
2023/01/19 02:26:36;;;;;;;16.23;12.17;;;3.50;99.90;;;;;;5060739;28;20227;-33
2023/01/19 02:29:12;;;;;;;19.53;12.80;;;3.60;99.90;;;;;;5057936;28;20307;-33
2023/01/19 02:31:39;;;;;;;20.47;12.33;;;3.60;99.90;;;;;;5067781;28;20221;-33
2023/01/19 02:34:16;;;;;;;16.47;11.53;;;3.50;99.90;;;;;;5065813;28;20250;-33
2023/01/19 02:36:49;;;;;;;19.67;11.50;;;3.50;99.90;;;;;;5052852;28;20414;-33
2023/01/19 02:39:26;;;;;;;15.47;10.93;;;3.50;99.90;;;;;;5047310;28;20204;-33
2023/01/19 02:42:04;;;;;;;17.30;11.93;;;3.60;99.90;;;;;;5067377;28;20226;-33
2023/01/19 02:44:33;;;;;;;17.77;11.40;;;3.50;99.90;;;;;;5065982;28;20235;-33
2023/01/19 02:47:03;;;;;;;18.77;11.47;;;3.50;99.90;;;;;;5067470;28;20212;-33
2023/01/19 02:49:31;;;;;;;18.83;11.63;;;3.50;99.90;;;;;;5048534;28;20219;-33
2023/01/19 02:51:59;;;;;;;18.67;12.53;;;3.50;99.90;;;;;;5063703;28;20357;-33
2023/01/19 02:54:34;;;;;;;17.90;11.53;;;3.50;99.90;;;;;;5065730;28;20199;-33
2023/01/19 02:57:15;;;;;;;16.27;11.37;;;3.50;99.90;;;;;;5067271;28;20202;-33
2023/01/19 03:00:08;;;;;;;17.33;11.77;;;3.50;99.90;;;;;;5065241;28;20298;-33
2023/01/19 03:03:03;;;;;;;17.57;12.33;;;3.50;99.90;;;;;;5065541;28;20211;-33
2023/01/19 03:05:46;;;;;;;15.17;11.03;;;3.50;99.90;;;;;;5067173;28;20803;-33
2023/01/19 03:08:29;;;;;;;17.30;11.80;;;3.50;99.90;;;;;;5067110;28;20223;-33
2023/01/19 03:11:05;;;;;;;16.60;11.10;;;3.60;99.90;;;;;;5064523;28;20225;-33
2023/01/19 03:14:12;;;;;;;16.00;11.03;;;3.60;99.90;;;;;;5067211;28;20249;-33
2023/01/19 03:16:48;;;;;;;18.37;11.60;;;3.60;99.90;;;;;;5065431;28;20203;-33
2023/01/19 03:19:23;;;;;;;18.27;12.47;;;3.60;99.90;;;;;;5065487;28;20223;-33
2023/01/19 03:21:57;;;;;;;21.97;11.00;;;3.60;99.90;;;;;;5066355;28;20244;-33
2023/01/19 03:24:28;;;;;;;17.57;10.90;;;3.60;99.90;;;;;;5067207;28;20285;-33
2023/01/19 03:27:03;;;;;;;19.87;11.33;;;3.60;99.90;;;;;;5066892;28;20230;-34
2023/01/19 03:29:35;;;;;;;17.80;11.87;;;3.60;99.90;;;;;;5065516;28;20237;-33
2023/01/19 03:32:08;;;;;;;15.80;11.63;;;3.70;99.90;;;;;;5066350;28;20203;-33
2023/01/19 03:34:38;;;;;;;15.77;11.67;;;3.70;99.90;;;;;;5066794;28;20200;-33
2023/01/19 03:37:08;;;;;;;18.57;11.07;;;3.70;99.90;;;;;;5066726;28;20214;-33
2023/01/19 03:39:36;;;;;;;19.17;11.40;;;3.70;99.90;;;;;;5064922;28;20261;-33
2023/01/19 03:42:06;;;;;;;19.17;11.90;;;3.70;99.90;;;;;;5062068;28;20238;-33
2023/01/19 03:44:38;;;;;;;16.50;10.37;;;3.80;99.90;;;;;;5066423;28;20708;-33
2023/01/19 03:47:07;;;;;;;16.77;10.70;;;3.80;99.90;;;;;;5065003;28;20244;-33
2023/01/19 03:49:36;;;;;;;18.53;11.33;;;3.80;99.90;;;;;;5065737;28;20254;-33
2023/01/19 03:52:09;;;;;;;13.03;9.67;;;3.80;99.90;;;;;;5063960;28;20239;-33
2023/01/19 03:54:39;;;;;;;15.17;10.20;;;3.90;99.90;;;;;;5066185;28;20225;-33
2023/01/19 03:57:11;;;;;;;15.07;10.53;;;3.90;99.90;;;;;;5066353;28;20223;-33
2023/01/19 03:59:39;;;;;;;18.43;10.07;;;4.00;99.90;;;;;;5066444;28;20261;-33
2023/01/19 04:02:13;;;;;;;14.43;9.87;;;4.00;99.90;;;;;;5065651;28;20243;-33
2023/01/19 04:04:43;;;;;;;19.57;10.90;;;4.00;99.90;;;;;;5064786;28;20670;-33
2023/01/19 04:07:13;;;;;;;19.13;10.57;;;4.10;99.90;;;;;;5066331;28;20199;-33
2023/01/19 04:09:45;;;;;;;16.93;10.77;;;4.10;99.90;;;;;;5065882;28;20281;-33
2023/01/19 04:12:17;;;;;;;18.67;11.00;;;4.10;99.90;;;;;;5064430;28;20211;-33
2023/01/19 04:14:47;;;;;;;14.80;9.97;;;4.10;99.90;;;;;;5066170;28;20195;-33
2023/01/19 04:17:16;;;;;;;17.67;10.57;;;4.10;99.90;;;;;;5064700;28;20289;-33
2023/01/19 04:19:44;;;;;;;19.93;10.60;;;4.10;99.90;;;;;;5063885;28;20416;-33
2023/01/19 04:22:11;;;;;;;16.67;9.97;;;4.10;99.90;;;;;;5064894;28;20730;-33
2023/01/19 04:24:41;;;;;;;19.53;11.40;;;4.10;99.90;;;;;;5066717;28;20685;-33
2023/01/19 04:27:08;;;;;;;19.13;11.07;;;4.10;99.90;;;;;;5065216;28;20297;-33
2023/01/19 04:29:35;;;;;;;19.17;11.40;;;4.10;99.90;;;;;;5064214;28;20334;-33
2023/01/19 04:32:02;;;;;;;20.13;10.80;;;4.10;99.90;;;;;;5066190;28;20249;-33
2023/01/19 04:34:29;;;;;;;17.33;11.23;;;4.10;99.90;;;;;;5056411;28;20253;-32
2023/01/19 04:36:56;;;;;;;16.80;10.83;;;4.10;99.90;;;;;;5046226;28;20204;-33
2023/01/19 04:39:24;;;;;;;17.30;11.50;;;4.10;99.90;;;;;;5053609;28;20277;-33
2023/01/19 04:41:52;;;;;;;16.57;10.83;;;4.10;99.90;;;;;;5065985;28;20195;-33
2023/01/19 04:44:19;;;;;;;18.57;11.13;;;4.10;99.90;;;;;;5065970;28;20223;-33
2023/01/19 04:46:47;;;;;;;18.40;11.67;;;4.10;99.90;;;;;;5065569;28;20212;-33
2023/01/19 04:49:17;;;;;;;18.73;11.50;;;4.00;99.90;;;;;;5060041;28;20714;-33
2023/01/19 04:51:47;;;;;;;19.70;11.43;;;4.10;99.90;;;;;;5061786;28;20240;-33
2023/01/19 04:54:17;;;;;;;19.83;12.07;;;4.10;99.90;;;;;;5065885;28;20207;-32
2023/01/19 04:56:44;;;;;;;21.83;11.43;;;4.10;99.90;;;;;;5064746;28;20791;-33
2023/01/19 04:59:14;;;;;;;16.90;11.30;;;4.00;99.90;;;;;;5065218;28;20574;-34
2023/01/19 05:01:41;;;;;;;19.77;11.70;;;4.00;99.90;;;;;;5067999;28;20216;-33
2023/01/19 05:04:09;;;;;;;19.73;12.47;;;4.00;99.90;;;;;;5069761;28;20565;-34
2023/01/19 05:06:36;;;;;;;25.63;12.97;;;4.00;99.90;;;;;;5069423;28;20208;-33
2023/01/19 05:09:06;;;;;;;20.73;12.13;;;4.00;99.90;;;;;;5068814;28;20257;-33
2023/01/19 05:11:35;;;;;;;21.97;12.80;;;4.00;99.90;;;;;;5069422;28;20432;-33
2023/01/19 05:14:09;;;;;;;22.73;13.47;;;4.00;99.90;;;;;;5069323;28;20632;-33
2023/01/19 05:16:42;;;;;;;21.13;13.47;;;4.00;99.90;;;;;;5069311;28;20230;-33
2023/01/19 05:19:14;;;;;;;26.40;14.27;;;3.90;99.90;;;;;;5067453;28;20208;-33
2023/01/19 05:21:42;;;;;;;23.33;13.47;;;3.90;99.90;;;;;;5068162;28;20203;-32
2023/01/19 05:24:11;;;;;;;22.87;14.00;;;3.90;99.90;;;;;;5069068;28;20219;-33
2023/01/19 05:26:38;;;;;;;22.77;14.70;;;3.90;99.90;;;;;;5069229;28;20308;-33
2023/01/19 05:29:09;;;;;;;24.43;13.77;;;3.90;99.90;;;;;;5077120;28;20247;-33
2023/01/19 05:31:38;;;;;;;27.23;14.90;;;3.90;99.90;;;;;;5068289;28;20203;-33
2023/01/19 05:34:08;;;;;;;26.33;14.67;;;3.90;99.90;;;;;;5068895;28;20214;-33
2023/01/19 05:36:40;;;;;;;22.87;14.00;;;3.90;99.90;;;;;;5068966;28;20698;-33
2023/01/19 05:39:10;;;;;;;24.17;14.53;;;3.90;99.90;;;;;;5068297;28;20257;-34
2023/01/19 05:41:40;;;;;;;22.20;14.50;;;3.90;99.90;;;;;;5067601;28;20882;-33
2023/01/19 05:44:08;;;;;;;23.50;13.97;;;3.80;99.90;;;;;;5068733;28;20241;-33
2023/01/19 05:46:41;;;;;;;25.77;14.97;;;3.80;99.90;;;;;;5067303;28;20258;-33
2023/01/19 05:49:08;;;;;;;24.13;15.17;;;3.80;99.90;;;;;;5068187;28;20215;-33
2023/01/19 05:51:39;;;;;;;24.07;15.13;;;3.80;99.90;;;;;;5068401;28;20242;-33
2023/01/19 05:54:07;;;;;;;25.50;15.93;;;3.80;99.90;;;;;;5068116;28;20203;-32
2023/01/19 05:56:34;;;;;;;27.53;15.63;;;3.80;99.90;;;;;;5068670;28;20219;-33
2023/01/19 05:59:04;;;;;;;24.27;15.83;;;3.70;99.90;;;;;;5067935;28;20292;-33
2023/01/19 06:01:35;;;;;;;25.97;15.70;;;3.70;99.90;;;;;;5053396;28;20204;-33
2023/01/19 06:04:05;;;;;;;31.43;15.87;;;3.70;99.90;;;;;;5049112;28;20270;-33
2023/01/19 06:06:33;;;;;;;26.43;15.83;;;3.70;99.90;;;;;;5048217;28;20208;-33
2023/01/19 06:09:00;;;;;;;25.50;15.63;;;3.70;99.90;;;;;;5049943;28;20259;-33
2023/01/19 06:11:27;;;;;;;27.83;15.20;;;3.70;99.90;;;;;;5066803;28;20187;-33
2023/01/19 06:13:58;;;;;;;26.93;15.80;;;3.60;99.90;;;;;;5051408;28;20226;-33
2023/01/19 06:16:30;;;;;;;23.00;15.17;;;3.60;99.90;;;;;;5062276;28;20254;-33
2023/01/19 06:19:00;;;;;;;24.93;15.87;;;3.70;99.90;;;;;;5058070;28;20277;-33
2023/01/19 06:21:33;;;;;;;29.37;16.67;;;3.70;99.90;;;;;;5063664;28;20670;-33
2023/01/19 06:24:02;;;;;;;28.43;17.03;;;3.70;99.90;;;;;;5079647;28;20199;-33
2023/01/19 06:26:33;;;;;;;24.90;15.93;;;3.60;99.90;;;;;;5066626;28;20208;-33
2023/01/19 06:29:03;;;;;;;23.63;15.00;;;3.60;99.90;;;;;;5063692;28;20231;-33
2023/01/19 06:31:30;;;;;;;27.53;16.37;;;3.60;99.90;;;;;;5062484;28;20987;-33
2023/01/19 06:33:57;;;;;;;29.20;16.80;;;3.60;99.90;;;;;;5062188;28;20246;-33
2023/01/19 06:36:25;;;;;;;25.97;17.03;;;3.60;99.90;;;;;;5064112;28;20210;-33
2023/01/19 06:38:52;;;;;;;25.63;16.43;;;3.60;99.90;;;;;;5057744;28;20682;-33
2023/01/19 06:41:21;;;;;;;26.70;16.17;;;3.60;99.90;;;;;;5066181;28;20242;-33
2023/01/19 06:43:49;;;;;;;25.97;15.70;;;3.60;99.90;;;;;;5062973;28;20761;-33
2023/01/19 06:46:18;;;;;;;24.67;14.97;;;3.60;99.90;;;;;;5063615;28;20203;-33
2023/01/19 06:48:48;;;;;;;30.53;16.23;;;3.50;99.90;;;;;;5062906;28;20276;-33
2023/01/19 06:51:15;;;;;;;26.30;15.47;;;3.50;99.90;;;;;;5061521;28;20353;-33
2023/01/19 06:53:44;;;;;;;30.37;16.27;;;3.50;99.90;;;;;;5062627;28;21971;-33
2023/01/19 06:56:18;;;;;;;27.33;15.60;;;3.50;99.90;;;;;;5058816;28;20705;-32
2023/01/19 06:58:47;;;;;;;22.00;14.70;;;3.50;99.90;;;;;;5060921;28;20700;-32
2023/01/19 07:01:14;;;;;;;27.23;15.50;;;3.50;99.90;;;;;;5066508;28;20746;-32
2023/01/19 07:03:44;;;;;;;28.87;15.20;;;3.50;99.90;;;;;;5062828;28;20682;-32
2023/01/19 07:06:15;;;;;;;30.23;16.50;;;3.50;99.90;;;;;;5063849;28;20223;-32
2023/01/19 07:08:49;;;;;;;27.30;15.40;;;3.50;99.90;;;;;;5062485;28;20208;-32
2023/01/19 07:11:19;;;;;;;32.23;15.30;;;3.50;99.90;;;;;;5054933;28;20200;-32
2023/01/19 07:13:58;;;;;;;28.53;16.57;;;3.60;99.90;;;;;;5064651;28;20196;-32
2023/01/19 07:16:25;;;;;;;32.53;15.93;;;3.50;99.90;;;;;;5059450;28;20824;-32
2023/01/19 07:18:55;;;;;;;24.10;15.03;;;3.50;99.90;;;;;;5051938;28;20212;-32
2023/01/19 07:21:22;;;;;;;25.63;15.10;;;3.60;99.90;;;;;;5063232;28;20223;-32
2023/01/19 07:23:54;;;;;;;28.73;15.17;;;3.60;99.90;;;;;;5064644;28;20272;-32
2023/01/19 07:26:24;;;;;;;33.73;15.93;;;3.60;99.90;;;;;;5062853;28;20732;-32
2023/01/19 07:28:51;;;;;;;27.60;15.33;;;3.60;99.90;;;;;;5058930;28;21496;-32
2023/01/19 07:31:19;;;;;;;23.77;14.73;;;3.60;99.90;;;;;;5060019;28;20195;-32
2023/01/19 07:33:47;;;;;;;24.40;14.27;;;3.60;99.90;;;;;;5066002;28;20238;-32
2023/01/19 07:36:14;;;;;;;24.23;15.43;;;3.60;99.90;;;;;;5053416;28;20207;-32
2023/01/19 07:38:41;;;;;;;30.67;15.43;;;3.60;99.90;;;;;;5057927;28;20203;-32
2023/01/19 07:41:09;;;;;;;25.20;15.17;;;3.60;99.90;;;;;;5064553;28;20211;-32
2023/01/19 07:43:36;;;;;;;25.80;15.77;;;3.50;99.90;;;;;;5060369;28;20584;-32
2023/01/19 07:46:05;;;;;;;23.47;14.10;;;3.60;99.90;;;;;;5043071;28;20258;-32
2023/01/19 07:48:35;;;;;;;24.90;14.67;;;3.60;99.90;;;;;;5044535;28;20698;-32
2023/01/19 07:51:07;;;;;;;28.73;16.47;;;3.60;99.90;;;;;;5065356;28;20223;-32
2023/01/19 07:53:38;;;;;;;31.70;15.30;;;3.60;99.90;;;;;;5061324;28;20195;-32
2023/01/19 07:56:06;;;;;;;28.23;15.53;;;3.60;99.90;;;;;;5077854;28;20297;-32
2023/01/19 07:58:33;;;;;;;31.53;15.77;;;3.70;99.90;;;;;;5065794;28;20219;-32
2023/01/19 08:01:06;;;;;;;25.87;14.93;;;3.70;99.90;;;;;;5062542;28;20290;-32
2023/01/19 08:03:36;;;;;;;27.10;15.77;;;3.70;99.90;;;;;;5053491;28;20211;-32
2023/01/19 08:06:04;;;;;;;26.73;15.53;;;3.70;99.90;;;;;;5055376;28;20678;-32
2023/01/19 08:08:34;;;;;;;27.47;14.20;;;3.70;99.90;;;;;;5064620;28;20559;-33
2023/01/19 08:11:03;;;;;;;27.00;16.87;;;3.70;99.90;;;;;;5060187;28;20569;-33
2023/01/19 08:13:31;;;;;;;29.37;14.97;;;3.70;99.90;;;;;;5064625;28;20215;-33
2023/01/19 08:15:58;;;;;;;31.03;16.13;;;3.70;99.90;;;;;;5063867;28;20203;-33
2023/01/19 08:18:28;;;;;;;25.73;15.57;;;3.70;99.90;;;;;;5063706;28;20223;-33
2023/01/19 08:20:57;;;;;;;27.93;15.70;;;3.70;99.90;;;;;;5053891;28;20203;-33
2023/01/19 08:23:26;;;;;;;25.90;15.10;;;3.70;99.90;;;;;;5053322;28;20220;-32
2023/01/19 08:25:54;;;;;;;23.03;15.00;;;3.80;99.90;;;;;;5056421;28;20208;-33
2023/01/19 08:28:24;;;;;;;23.63;13.93;;;3.80;99.90;;;;;;5065055;28;20238;-33
2023/01/19 08:30:54;;;;;;;27.40;15.10;;;3.80;99.90;;;;;;5057583;28;20842;-33
2023/01/19 08:33:24;;;;;;;31.07;16.30;;;3.80;99.90;;;;;;5061779;28;20208;-33
2023/01/19 08:35:52;;;;;;;30.00;15.63;;;3.90;99.90;;;;;;5062070;28;20204;-33
2023/01/19 08:38:20;;;;;;;24.20;15.00;;;3.90;99.90;;;;;;5062323;28;20310;-33
2023/01/19 08:40:50;;;;;;;25.73;15.03;;;4.00;99.90;;;;;;5063102;28;20235;-33
2023/01/19 08:43:17;;;;;;;24.90;14.80;;;4.00;99.90;;;;;;5068304;28;20207;-33
2023/01/19 08:45:54;;;;;;;27.17;15.17;;;4.00;99.90;;;;;;5058829;28;20285;-33
2023/01/19 08:48:24;;;;;;;26.67;14.50;;;4.00;99.90;;;;;;5069568;28;20641;-33
2023/01/19 08:50:52;;;;;;;23.07;14.37;;;4.00;99.90;;;;;;5067613;28;20237;-33
2023/01/19 08:53:23;;;;;;;25.17;14.73;;;4.10;99.90;;;;;;5066368;28;20281;-33
2023/01/19 08:55:56;;;;;;;29.23;14.73;;;4.20;99.90;;;;;;5062716;28;20223;-33
2023/01/19 08:58:23;;;;;;;29.67;14.70;;;4.20;99.90;;;;;;5070127;28;20211;-33
2023/01/19 09:00:51;;;;;;;22.17;13.77;;;4.20;99.90;;;;;;5055927;28;20199;-33
2023/01/19 09:03:23;;;;;;;23.90;13.73;;;4.30;99.90;;;;;;5065110;28;20636;-33
2023/01/19 09:05:53;;;;;;;26.43;14.10;;;4.30;99.90;;;;;;5066902;28;20227;-33
2023/01/19 09:08:22;;;;;;;25.07;14.43;;;4.30;99.90;;;;;;5067507;28;20234;-33
2023/01/19 09:10:50;;;;;;;25.20;14.10;;;4.30;99.90;;;;;;5066956;28;20270;-33
2023/01/19 09:13:20;;;;;;;22.80;13.97;;;4.30;99.90;;;;;;5065684;28;20204;-33
2023/01/19 09:15:47;;;;;;;23.70;14.30;;;4.40;99.90;;;;;;5064006;28;20200;-33
2023/01/19 09:18:20;;;;;;;26.10;15.20;;;4.40;99.90;;;;;;5068592;28;20314;-33
2023/01/19 09:20:49;;;;;;;25.97;13.93;;;4.40;99.90;;;;;;5065037;28;20241;-33
2023/01/19 09:23:21;;;;;;;24.37;13.93;;;4.40;99.90;;;;;;5067177;28;20223;-33
2023/01/19 09:25:56;;;;;;;25.47;15.07;;;4.50;99.90;;;;;;5067193;28;20277;-33
2023/01/19 09:28:29;;;;;;;28.07;14.47;;;4.40;99.90;;;;;;5069351;28;20621;-33
2023/01/19 09:30:57;;;;;;;27.37;14.43;;;4.40;99.90;;;;;;5061441;28;20238;-33
2023/01/19 09:33:28;;;;;;;24.80;14.60;;;4.50;99.90;;;;;;5065446;28;20201;-32
2023/01/19 09:35:55;;;;;;;21.27;13.80;;;4.40;99.90;;;;;;5066996;28;20678;-33
2023/01/19 09:38:25;;;;;;;28.87;15.93;;;4.40;99.90;;;;;;5065533;28;20223;-33
2023/01/19 09:40:56;;;;;;;25.33;15.17;;;4.50;99.90;;;;;;5065976;28;20224;-33
2023/01/19 09:43:29;;;;;;;24.60;15.23;;;4.50;99.90;;;;;;5067020;28;20253;-34
2023/01/19 09:45:59;;;;;;;24.87;15.57;;;4.60;99.90;;;;;;5064548;28;20228;-33
2023/01/19 09:48:32;;;;;;;27.00;15.33;;;4.60;99.90;;;;;;5065675;28;20573;-33
2023/01/19 09:51:06;;;;;;;28.13;16.03;;;4.70;99.90;;;;;;5064132;28;20234;-32
2023/01/19 09:53:39;;;;;;;27.43;15.47;;;4.70;99.90;;;;;;5062412;28;20713;-32
2023/01/19 09:56:14;;;;;;;26.03;15.60;;;4.70;99.90;;;;;;5077884;28;20200;-32
2023/01/19 09:58:42;;;;;;;32.63;15.60;;;4.70;99.90;;;;;;5063056;28;20207;-32
2023/01/19 10:01:30;;;;;;;28.83;15.73;;;4.80;99.90;;;;;;5058965;28;20731;-32
2023/01/19 10:04:21;;;;;;;27.63;15.73;;;4.80;99.90;;;;;;5065852;28;20285;-32
2023/01/19 10:06:51;;;;;;;26.13;15.07;;;4.90;99.90;;;;;;5063619;28;20210;-32
2023/01/19 10:09:30;;;;;;;29.17;15.63;;;4.90;99.90;;;;;;5064700;28;20258;-32
2023/01/19 10:12:11;;;;;;;38.57;16.60;;;4.90;99.90;;;;;;5065053;28;20249;-32
2023/01/19 10:14:53;;;;;;;30.07;15.50;;;4.90;99.90;;;;;;5068147;28;20669;-32
2023/01/19 10:17:49;;;;;;;28.93;15.10;;;5.00;99.90;;;;;;5080827;28;20216;-32
2023/01/19 10:20:33;;;;;;;34.07;15.43;;;5.00;99.90;;;;;;5061416;28;20619;-32
2023/01/19 10:23:16;;;;;;;27.23;14.13;;;5.00;99.90;;;;;;5064676;28;20298;-32
2023/01/19 10:25:44;;;;;;;23.77;12.83;;;5.10;99.90;;;;;;5064092;28;20215;-32
2023/01/19 10:28:13;;;;;;;24.50;13.87;;;5.10;99.90;;;;;;5064860;28;20669;-32
2023/01/19 10:30:43;;;;;;;23.93;14.03;;;5.10;99.90;;;;;;5062552;28;20365;-32
2023/01/19 10:33:14;;;;;;;26.77;14.73;;;5.10;99.90;;;;;;5061043;28;20337;-32
2023/01/19 10:35:41;;;;;;;22.53;13.33;;;5.10;99.90;;;;;;5076429;28;20227;-32
2023/01/19 10:38:18;;;;;;;23.10;13.10;;;5.10;99.90;;;;;;5051599;28;20306;-32
2023/01/19 10:41:03;;;;;;;25.23;12.83;;;5.20;99.90;;;;;;5066216;28;20207;-32
2023/01/19 10:43:33;;;;;;;24.10;13.37;;;5.10;99.90;;;;;;5065781;28;20497;-32
2023/01/19 10:46:41;;;;;;;24.40;13.37;;;5.20;99.90;;;;;;5063172;28;20280;-32
2023/01/19 10:49:23;;;;;;;32.80;13.03;;;5.20;99.90;;;;;;5057698;28;20207;-32
2023/01/19 10:51:53;;;;;;;29.10;12.83;;;5.20;99.90;;;;;;5065288;28;20289;-32
2023/01/19 10:54:21;;;;;;;21.77;13.47;;;5.20;99.90;;;;;;5066405;28;20273;-32
2023/01/19 10:57:03;;;;;;;25.77;13.50;;;5.20;99.90;;;;;;5062025;28;20289;-33
2023/01/19 10:59:44;;;;;;;26.33;13.67;;;5.30;99.90;;;;;;5064481;28;20785;-32
2023/01/19 11:02:33;;;;;;;36.83;14.27;;;5.30;99.90;;;;;;5056376;28;20295;-32
2023/01/19 11:05:23;;;;;;;25.30;13.17;;;5.30;99.90;;;;;;5061296;28;20674;-32
2023/01/19 11:07:54;;;;;;;25.80;14.03;;;5.30;99.90;;;;;;5078695;28;20203;-32
2023/01/19 11:10:27;;;;;;;23.10;13.30;;;5.30;99.90;;;;;;5058025;28;20228;-32
2023/01/19 11:12:56;;;;;;;22.97;13.70;;;5.40;99.90;;;;;;5067382;28;20661;-32
2023/01/19 11:15:27;;;;;;;26.30;13.70;;;5.40;99.90;;;;;;5062983;28;20771;-32
2023/01/19 11:17:55;;;;;;;24.63;13.93;;;5.40;99.90;;;;;;5059728;28;20203;-32
2023/01/19 11:20:24;;;;;;;27.50;14.17;;;5.40;99.90;;;;;;5063115;28;20215;-32
2023/01/19 11:23:04;;;;;;;25.67;13.27;;;5.40;99.90;;;;;;5065602;28;20218;-33
2023/01/19 11:25:34;;;;;;;38.17;15.60;;;5.40;99.90;;;;;;5076053;28;20205;-32
2023/01/19 11:28:02;;;;;;;38.27;15.47;;;5.40;99.90;;;;;;5060500;28;20204;-33
2023/01/19 11:30:34;;;;;;;25.03;13.47;;;5.40;99.90;;;;;;5063653;28;20705;-32
2023/01/19 11:33:04;;;;;;;25.43;13.33;;;5.40;99.90;;;;;;5063221;28;20734;-32
2023/01/19 11:35:39;;;;;;;21.73;12.80;;;5.40;99.90;;;;;;5068673;28;20204;-32
2023/01/19 11:38:22;;;;;;;24.83;13.67;;;5.40;99.90;;;;;;5066110;28;20211;-32
2023/01/19 11:40:54;;;;;;;30.57;14.20;;;5.40;99.90;;;;;;5048447;28;20682;-32
2023/01/19 11:43:26;;;;;;;35.73;16.03;;;5.40;99.90;;;;;;5062348;28;20290;-32
2023/01/19 11:46:17;;;;;;;27.80;15.00;;;5.30;99.90;;;;;;5057999;28;20226;-33
2023/01/19 11:48:56;;;;;;;26.47;14.43;;;5.40;99.90;;;;;;5063294;28;20229;-32
2023/01/19 11:51:26;;;;;;;23.00;14.53;;;5.40;99.90;;;;;;5059751;28;20308;-32
2023/01/19 11:53:56;;;;;;;26.87;15.53;;;5.40;99.90;;;;;;5063876;28;20211;-33
2023/01/19 11:56:27;;;;;;;23.00;13.87;;;5.50;99.90;;;;;;5064832;28;20257;-32
2023/01/19 11:58:57;;;;;;;21.40;13.17;;;5.50;99.90;;;;;;5062697;28;20197;-33
2023/01/19 12:01:39;;;;;;;23.83;14.23;;;5.50;99.90;;;;;;5057548;28;20678;-32
2023/01/19 12:04:10;;;;;;;26.50;15.40;;;5.50;99.90;;;;;;5063559;28;20657;-32
2023/01/19 12:06:48;;;;;;;28.07;15.43;;;5.60;99.90;;;;;;5065856;28;20207;-32
2023/01/19 12:09:23;;;;;;;25.63;15.47;;;5.60;99.90;;;;;;5060942;28;20248;-32
2023/01/19 12:12:00;;;;;;;24.23;14.40;;;5.70;99.90;;;;;;5055821;28;20223;-32
2023/01/19 12:14:39;;;;;;;26.67;15.07;;;5.70;99.90;;;;;;5064598;28;20211;-32
2023/01/19 12:17:19;;;;;;;27.83;16.00;;;5.80;99.90;;;;;;5067087;28;20295;-32
2023/01/19 12:19:54;;;;;;;28.80;15.70;;;5.80;99.90;;;;;;5063598;28;20204;-32
2023/01/19 12:22:23;;;;;;;32.57;16.77;;;5.80;99.90;;;;;;5065866;28;20219;-32
2023/01/19 12:25:19;;;;;;;27.63;16.63;;;5.80;99.90;;;;;;5062458;28;20988;-33
2023/01/19 12:27:49;;;;;;;27.50;16.27;;;5.80;99.90;;;;;;5060190;28;20217;-32
2023/01/19 12:30:28;;;;;;;30.57;17.20;;;5.80;99.90;;;;;;5062107;28;20238;-32
2023/01/19 12:33:27;;;;;;;27.43;16.17;;;5.90;99.90;;;;;;5063831;28;20207;-32
2023/01/19 12:35:56;;;;;;;31.13;17.23;;;5.90;99.90;;;;;;5072652;28;20203;-33
2023/01/19 12:38:31;;;;;;;29.80;16.27;;;5.90;99.90;;;;;;5082642;28;20195;-32
2023/01/19 12:41:21;;;;;;;30.67;16.43;;;5.90;99.90;;;;;;5061978;28;20198;-32
2023/01/19 12:47:02;;;;;;;28.03;16.83;;;5.90;99.90;;;;;;5061654;28;20225;-32
2023/01/19 12:49:41;;;;;;;31.33;17.60;;;5.90;99.90;;;;;;5059213;28;20253;-32
2023/01/19 12:52:29;;;;;;;31.33;16.90;;;5.90;99.90;;;;;;5057332;28;20359;-32
2023/01/19 12:54:58;;;;;;;33.73;17.83;;;5.90;99.90;;;;;;5062608;28;20684;-32
2023/01/19 12:57:48;;;;;;;32.07;17.33;;;5.90;99.90;;;;;;5065288;28;20832;-32
2023/01/19 13:00:21;;;;;;;32.60;17.53;;;6.00;99.90;;;;;;5064247;28;20243;-32
2023/01/19 13:02:50;;;;;;;32.97;17.73;;;6.00;99.90;;;;;;5065866;28;20277;-32
2023/01/19 13:05:30;;;;;;;29.27;17.33;;;6.00;99.90;;;;;;5063567;28;20211;-32
2023/01/19 13:08:03;;;;;;;26.87;15.70;;;6.10;99.90;;;;;;5064798;28;20191;-32
2023/01/19 13:10:53;;;;;;;27.80;15.53;;;6.00;99.90;;;;;;5064309;28;20278;-32
2023/01/19 13:13:26;;;;;;;37.40;17.80;;;6.10;99.90;;;;;;5063775;28;20207;-32
2023/01/19 13:16:18;;;;;;;33.80;17.60;;;6.20;99.90;;;;;;5063798;28;20259;-32
2023/01/19 13:18:54;;;;;;;30.13;17.10;;;6.20;99.90;;;;;;5052066;28;20200;-32